sensor_id;sensor_type;location;lat;lon;timestamp;P1;durP1;ratioP1;P2;durP2;ratioP2
25758;SDS011;13604;52.496;13.456;2022-09-25T00:01:02;7.75;;;6.80;;
25758;SDS011;13604;52.496;13.456;2022-09-25T00:03:28;10.38;;;7.63;;
25758;SDS011;13604;52.496;13.456;2022-09-25T00:06:27;8.57;;;7.32;;
25758;SDS011;13604;52.496;13.456;2022-09-25T00:08:47;11.82;;;6.90;;
25758;SDS011;13604;52.496;13.456;2022-09-25T00:11:15;12.07;;;7.18;;
25758;SDS011;13604;52.496;13.456;2022-09-25T00:13:42;8.43;;;6.70;;
25758;SDS011;13604;52.496;13.456;2022-09-25T00:16:09;9.77;;;7.15;;
25758;SDS011;13604;52.496;13.456;2022-09-25T00:18:36;9.68;;;6.45;;
25758;SDS011;13604;52.496;13.456;2022-09-25T00:21:20;8.25;;;7.03;;
25758;SDS011;13604;52.496;13.456;2022-09-25T00:23:45;7.72;;;5.93;;
25758;SDS011;13604;52.496;13.456;2022-09-25T00:26:11;8.57;;;6.43;;
25758;SDS011;13604;52.496;13.456;2022-09-25T00:28:38;9.95;;;6.47;;
25758;SDS011;13604;52.496;13.456;2022-09-25T00:31:05;6.05;;;5.45;;
25758;SDS011;13604;52.496;13.456;2022-09-25T00:33:32;7.70;;;6.15;;
25758;SDS011;13604;52.496;13.456;2022-09-25T00:36:02;10.02;;;7.60;;
25758;SDS011;13604;52.496;13.456;2022-09-25T00:38:29;8.70;;;6.50;;
25758;SDS011;13604;52.496;13.456;2022-09-25T00:40:55;8.05;;;6.95;;
25758;SDS011;13604;52.496;13.456;2022-09-25T00:43:43;9.65;;;6.70;;
25758;SDS011;13604;52.496;13.456;2022-09-25T00:46:15;9.43;;;6.93;;
25758;SDS011;13604;52.496;13.456;2022-09-25T00:48:54;9.32;;;6.70;;
25758;SDS011;13604;52.496;13.456;2022-09-25T00:51:27;8.25;;;6.40;;
25758;SDS011;13604;52.496;13.456;2022-09-25T00:53:58;7.53;;;6.15;;
25758;SDS011;13604;52.496;13.456;2022-09-25T00:56:27;7.20;;;5.97;;
25758;SDS011;13604;52.496;13.456;2022-09-25T00:58:55;8.43;;;6.72;;
25758;SDS011;13604;52.496;13.456;2022-09-25T01:01:21;7.47;;;6.40;;
25758;SDS011;13604;52.496;13.456;2022-09-25T01:03:47;10.48;;;6.20;;
25758;SDS011;13604;52.496;13.456;2022-09-25T01:06:13;6.63;;;5.70;;
25758;SDS011;13604;52.496;13.456;2022-09-25T01:08:39;7.50;;;5.85;;
25758;SDS011;13604;52.496;13.456;2022-09-25T01:11:05;10.85;;;6.40;;
25758;SDS011;13604;52.496;13.456;2022-09-25T01:13:31;9.18;;;6.25;;
25758;SDS011;13604;52.496;13.456;2022-09-25T01:21:36;8.23;;;6.65;;
25758;SDS011;13604;52.496;13.456;2022-09-25T01:24:17;10.07;;;6.55;;
25758;SDS011;13604;52.496;13.456;2022-09-25T01:27:15;10.48;;;6.50;;
25758;SDS011;13604;52.496;13.456;2022-09-25T01:30:08;8.68;;;6.13;;
25758;SDS011;13604;52.496;13.456;2022-09-25T01:35:26;8.00;;;6.13;;
25758;SDS011;13604;52.496;13.456;2022-09-25T01:38:18;10.27;;;6.32;;
25758;SDS011;13604;52.496;13.456;2022-09-25T01:40:58;8.48;;;6.22;;
25758;SDS011;13604;52.496;13.456;2022-09-25T01:44:08;6.40;;;4.82;;
25758;SDS011;13604;52.496;13.456;2022-09-25T01:46:18;7.15;;;6.38;;
25758;SDS011;13604;52.496;13.456;2022-09-25T01:48:47;7.15;;;5.25;;
25758;SDS011;13604;52.496;13.456;2022-09-25T01:51:18;7.07;;;5.72;;
25758;SDS011;13604;52.496;13.456;2022-09-25T01:53:52;5.82;;;5.22;;
25758;SDS011;13604;52.496;13.456;2022-09-25T01:56:23;8.35;;;5.25;;
25758;SDS011;13604;52.496;13.456;2022-09-25T01:58:55;8.02;;;5.38;;
25758;SDS011;13604;52.496;13.456;2022-09-25T02:01:31;11.00;;;5.85;;
25758;SDS011;13604;52.496;13.456;2022-09-25T02:04:07;6.85;;;5.22;;
25758;SDS011;13604;52.496;13.456;2022-09-25T02:06:38;8.20;;;5.55;;
25758;SDS011;13604;52.496;13.456;2022-09-25T02:09:09;7.18;;;5.50;;
25758;SDS011;13604;52.496;13.456;2022-09-25T02:11:41;8.02;;;5.97;;
25758;SDS011;13604;52.496;13.456;2022-09-25T02:14:17;9.25;;;5.07;;
25758;SDS011;13604;52.496;13.456;2022-09-25T02:16:46;9.77;;;6.05;;
25758;SDS011;13604;52.496;13.456;2022-09-25T02:19:16;8.57;;;6.28;;
25758;SDS011;13604;52.496;13.456;2022-09-25T02:22:06;10.80;;;6.40;;
25758;SDS011;13604;52.496;13.456;2022-09-25T02:27:13;7.55;;;5.40;;
25758;SDS011;13604;52.496;13.456;2022-09-25T02:29:39;6.85;;;5.30;;
25758;SDS011;13604;52.496;13.456;2022-09-25T02:32:06;7.50;;;5.60;;
25758;SDS011;13604;52.496;13.456;2022-09-25T02:34:34;6.82;;;5.53;;
25758;SDS011;13604;52.496;13.456;2022-09-25T02:37:00;9.98;;;5.55;;
25758;SDS011;13604;52.496;13.456;2022-09-25T02:39:27;8.25;;;6.38;;
25758;SDS011;13604;52.496;13.456;2022-09-25T02:42:08;7.43;;;6.10;;
25758;SDS011;13604;52.496;13.456;2022-09-25T02:44:48;10.73;;;7.00;;
25758;SDS011;13604;52.496;13.456;2022-09-25T02:47:27;10.57;;;7.60;;
25758;SDS011;13604;52.496;13.456;2022-09-25T02:50:12;9.30;;;7.18;;
25758;SDS011;13604;52.496;13.456;2022-09-25T02:52:45;9.25;;;6.95;;
25758;SDS011;13604;52.496;13.456;2022-09-25T02:55:24;8.85;;;6.25;;
25758;SDS011;13604;52.496;13.456;2022-09-25T03:00:34;9.05;;;6.78;;
25758;SDS011;13604;52.496;13.456;2022-09-25T03:03:01;9.60;;;7.03;;
25758;SDS011;13604;52.496;13.456;2022-09-25T03:05:31;8.57;;;6.47;;
25758;SDS011;13604;52.496;13.456;2022-09-25T03:07:57;9.65;;;7.53;;
25758;SDS011;13604;52.496;13.456;2022-09-25T03:10:40;7.57;;;6.40;;
25758;SDS011;13604;52.496;13.456;2022-09-25T03:15:38;7.43;;;6.65;;
25758;SDS011;13604;52.496;13.456;2022-09-25T03:18:04;9.73;;;7.53;;
25758;SDS011;13604;52.496;13.456;2022-09-25T03:20:29;9.98;;;7.70;;
25758;SDS011;13604;52.496;13.456;2022-09-25T03:22:55;9.35;;;7.47;;
25758;SDS011;13604;52.496;13.456;2022-09-25T03:25:20;11.25;;;7.80;;
25758;SDS011;13604;52.496;13.456;2022-09-25T03:27:46;11.13;;;8.18;;
25758;SDS011;13604;52.496;13.456;2022-09-25T03:30:11;11.00;;;7.32;;
25758;SDS011;13604;52.496;13.456;2022-09-25T03:32:37;8.32;;;7.32;;
25758;SDS011;13604;52.496;13.456;2022-09-25T03:35:03;8.98;;;7.63;;
25758;SDS011;13604;52.496;13.456;2022-09-25T03:37:28;9.57;;;7.25;;
25758;SDS011;13604;52.496;13.456;2022-09-25T03:39:55;11.98;;;8.45;;
25758;SDS011;13604;52.496;13.456;2022-09-25T03:42:20;13.75;;;8.00;;
25758;SDS011;13604;52.496;13.456;2022-09-25T03:44:45;9.10;;;7.13;;
25758;SDS011;13604;52.496;13.456;2022-09-25T03:47:11;12.18;;;7.78;;
25758;SDS011;13604;52.496;13.456;2022-09-25T03:49:36;8.52;;;7.13;;
25758;SDS011;13604;52.496;13.456;2022-09-25T03:52:01;9.80;;;7.20;;
25758;SDS011;13604;52.496;13.456;2022-09-25T03:54:27;8.90;;;6.93;;
25758;SDS011;13604;52.496;13.456;2022-09-25T03:56:52;11.30;;;7.47;;
25758;SDS011;13604;52.496;13.456;2022-09-25T03:59:17;10.02;;;7.22;;
25758;SDS011;13604;52.496;13.456;2022-09-25T04:01:43;10.15;;;7.15;;
25758;SDS011;13604;52.496;13.456;2022-09-25T04:04:09;8.07;;;7.28;;
25758;SDS011;13604;52.496;13.456;2022-09-25T04:06:34;9.23;;;6.63;;
25758;SDS011;13604;52.496;13.456;2022-09-25T04:09:00;10.45;;;7.82;;
25758;SDS011;13604;52.496;13.456;2022-09-25T04:11:25;10.50;;;7.75;;
25758;SDS011;13604;52.496;13.456;2022-09-25T04:13:50;10.88;;;7.65;;
25758;SDS011;13604;52.496;13.456;2022-09-25T04:16:16;9.93;;;7.88;;
25758;SDS011;13604;52.496;13.456;2022-09-25T04:18:44;11.77;;;9.00;;
25758;SDS011;13604;52.496;13.456;2022-09-25T04:21:11;9.25;;;7.45;;
25758;SDS011;13604;52.496;13.456;2022-09-25T04:23:38;8.23;;;7.32;;
25758;SDS011;13604;52.496;13.456;2022-09-25T04:26:03;11.52;;;8.75;;
25758;SDS011;13604;52.496;13.456;2022-09-25T04:28:29;12.60;;;8.00;;
25758;SDS011;13604;52.496;13.456;2022-09-25T04:30:56;9.57;;;8.10;;
25758;SDS011;13604;52.496;13.456;2022-09-25T04:33:21;12.38;;;8.30;;
25758;SDS011;13604;52.496;13.456;2022-09-25T04:36:05;12.45;;;8.80;;
25758;SDS011;13604;52.496;13.456;2022-09-25T04:38:30;11.05;;;8.55;;
25758;SDS011;13604;52.496;13.456;2022-09-25T04:40:56;10.90;;;7.97;;
25758;SDS011;13604;52.496;13.456;2022-09-25T04:43:23;13.95;;;9.30;;
25758;SDS011;13604;52.496;13.456;2022-09-25T04:45:48;22.40;;;10.02;;
25758;SDS011;13604;52.496;13.456;2022-09-25T04:48:15;15.43;;;8.68;;
25758;SDS011;13604;52.496;13.456;2022-09-25T04:50:45;13.38;;;10.27;;
25758;SDS011;13604;52.496;13.456;2022-09-25T04:53:12;9.90;;;8.75;;
25758;SDS011;13604;52.496;13.456;2022-09-25T04:55:37;12.48;;;9.57;;
25758;SDS011;13604;52.496;13.456;2022-09-25T04:58:03;12.88;;;9.32;;
25758;SDS011;13604;52.496;13.456;2022-09-25T05:00:30;13.52;;;10.13;;
25758;SDS011;13604;52.496;13.456;2022-09-25T05:02:56;15.82;;;10.50;;
25758;SDS011;13604;52.496;13.456;2022-09-25T05:05:22;13.35;;;10.32;;
25758;SDS011;13604;52.496;13.456;2022-09-25T05:07:56;15.35;;;10.18;;
25758;SDS011;13604;52.496;13.456;2022-09-25T05:10:23;12.70;;;9.32;;
25758;SDS011;13604;52.496;13.456;2022-09-25T05:12:54;15.73;;;11.68;;
25758;SDS011;13604;52.496;13.456;2022-09-25T05:15:20;14.60;;;10.82;;
25758;SDS011;13604;52.496;13.456;2022-09-25T05:17:46;11.23;;;9.18;;
25758;SDS011;13604;52.496;13.456;2022-09-25T05:20:11;15.13;;;10.00;;
25758;SDS011;13604;52.496;13.456;2022-09-25T05:22:36;10.40;;;8.52;;
25758;SDS011;13604;52.496;13.456;2022-09-25T05:25:02;11.52;;;9.25;;
25758;SDS011;13604;52.496;13.456;2022-09-25T05:27:28;13.80;;;9.68;;
25758;SDS011;13604;52.496;13.456;2022-09-25T05:29:53;13.30;;;8.75;;
25758;SDS011;13604;52.496;13.456;2022-09-25T05:32:18;12.88;;;9.75;;
25758;SDS011;13604;52.496;13.456;2022-09-25T05:34:44;12.25;;;8.80;;
25758;SDS011;13604;52.496;13.456;2022-09-25T05:37:09;16.55;;;9.68;;
25758;SDS011;13604;52.496;13.456;2022-09-25T05:39:34;12.73;;;9.90;;
25758;SDS011;13604;52.496;13.456;2022-09-25T05:41:59;12.15;;;10.00;;
25758;SDS011;13604;52.496;13.456;2022-09-25T05:44:26;17.35;;;10.10;;
25758;SDS011;13604;52.496;13.456;2022-09-25T05:46:52;15.25;;;10.05;;
25758;SDS011;13604;52.496;13.456;2022-09-25T05:49:20;18.58;;;10.45;;
25758;SDS011;13604;52.496;13.456;2022-09-25T05:51:45;14.50;;;10.93;;
25758;SDS011;13604;52.496;13.456;2022-09-25T05:54:12;14.43;;;9.50;;
25758;SDS011;13604;52.496;13.456;2022-09-25T05:56:37;14.10;;;9.68;;
25758;SDS011;13604;52.496;13.456;2022-09-25T05:59:02;13.90;;;10.07;;
25758;SDS011;13604;52.496;13.456;2022-09-25T06:01:28;13.00;;;9.80;;
25758;SDS011;13604;52.496;13.456;2022-09-25T06:03:53;14.13;;;9.90;;
25758;SDS011;13604;52.496;13.456;2022-09-25T06:06:18;14.50;;;10.30;;
25758;SDS011;13604;52.496;13.456;2022-09-25T06:08:44;12.70;;;9.45;;
25758;SDS011;13604;52.496;13.456;2022-09-25T06:11:09;12.13;;;9.38;;
25758;SDS011;13604;52.496;13.456;2022-09-25T06:13:35;15.57;;;9.75;;
25758;SDS011;13604;52.496;13.456;2022-09-25T06:16:01;21.50;;;11.55;;
25758;SDS011;13604;52.496;13.456;2022-09-25T06:18:27;13.25;;;9.35;;
25758;SDS011;13604;52.496;13.456;2022-09-25T06:20:58;13.98;;;9.65;;
25758;SDS011;13604;52.496;13.456;2022-09-25T06:23:27;13.30;;;9.98;;
25758;SDS011;13604;52.496;13.456;2022-09-25T06:25:53;12.55;;;10.15;;
25758;SDS011;13604;52.496;13.456;2022-09-25T06:28:18;12.65;;;10.18;;
25758;SDS011;13604;52.496;13.456;2022-09-25T06:30:44;14.90;;;10.40;;
25758;SDS011;13604;52.496;13.456;2022-09-25T06:33:09;15.32;;;9.68;;
25758;SDS011;13604;52.496;13.456;2022-09-25T06:35:40;13.50;;;8.48;;
25758;SDS011;13604;52.496;13.456;2022-09-25T06:38:07;15.10;;;9.32;;
25758;SDS011;13604;52.496;13.456;2022-09-25T06:40:32;13.98;;;9.65;;
25758;SDS011;13604;52.496;13.456;2022-09-25T06:42:58;10.45;;;8.98;;
25758;SDS011;13604;52.496;13.456;2022-09-25T06:45:25;11.05;;;9.07;;
25758;SDS011;13604;52.496;13.456;2022-09-25T06:48:04;12.90;;;9.73;;
25758;SDS011;13604;52.496;13.456;2022-09-25T06:50:54;11.75;;;8.85;;
25758;SDS011;13604;52.496;13.456;2022-09-25T06:53:20;16.23;;;9.48;;
25758;SDS011;13604;52.496;13.456;2022-09-25T06:55:47;14.63;;;9.18;;
25758;SDS011;13604;52.496;13.456;2022-09-25T06:58:14;14.25;;;9.25;;
25758;SDS011;13604;52.496;13.456;2022-09-25T07:00:45;13.98;;;9.38;;
25758;SDS011;13604;52.496;13.456;2022-09-25T07:03:12;14.07;;;9.00;;
25758;SDS011;13604;52.496;13.456;2022-09-25T07:05:57;13.73;;;9.63;;
25758;SDS011;13604;52.496;13.456;2022-09-25T07:08:23;12.73;;;8.77;;
25758;SDS011;13604;52.496;13.456;2022-09-25T07:10:49;13.90;;;9.85;;
25758;SDS011;13604;52.496;13.456;2022-09-25T07:13:17;15.70;;;10.40;;
25758;SDS011;13604;52.496;13.456;2022-09-25T07:15:49;14.90;;;9.80;;
25758;SDS011;13604;52.496;13.456;2022-09-25T07:18:15;14.52;;;10.18;;
25758;SDS011;13604;52.496;13.456;2022-09-25T07:20:40;14.13;;;9.70;;
25758;SDS011;13604;52.496;13.456;2022-09-25T07:23:06;11.63;;;8.93;;
25758;SDS011;13604;52.496;13.456;2022-09-25T07:25:31;17.42;;;10.88;;
25758;SDS011;13604;52.496;13.456;2022-09-25T07:27:57;12.65;;;9.40;;
25758;SDS011;13604;52.496;13.456;2022-09-25T07:30:28;15.95;;;10.18;;
25758;SDS011;13604;52.496;13.456;2022-09-25T07:32:54;15.90;;;9.98;;
25758;SDS011;13604;52.496;13.456;2022-09-25T07:35:19;13.75;;;9.80;;
25758;SDS011;13604;52.496;13.456;2022-09-25T07:37:45;18.38;;;10.10;;
25758;SDS011;13604;52.496;13.456;2022-09-25T07:40:10;12.13;;;9.73;;
25758;SDS011;13604;52.496;13.456;2022-09-25T07:42:38;15.25;;;9.02;;
25758;SDS011;13604;52.496;13.456;2022-09-25T07:45:04;12.00;;;9.15;;
25758;SDS011;13604;52.496;13.456;2022-09-25T07:47:30;11.35;;;8.05;;
25758;SDS011;13604;52.496;13.456;2022-09-25T07:49:55;12.85;;;9.50;;
25758;SDS011;13604;52.496;13.456;2022-09-25T07:52:21;12.88;;;10.07;;
25758;SDS011;13604;52.496;13.456;2022-09-25T07:54:46;16.75;;;9.98;;
25758;SDS011;13604;52.496;13.456;2022-09-25T07:57:12;15.70;;;10.25;;
25758;SDS011;13604;52.496;13.456;2022-09-25T07:59:37;11.98;;;9.18;;
25758;SDS011;13604;52.496;13.456;2022-09-25T08:02:02;13.98;;;10.40;;
25758;SDS011;13604;52.496;13.456;2022-09-25T08:04:29;16.70;;;9.90;;
25758;SDS011;13604;52.496;13.456;2022-09-25T08:06:54;14.88;;;9.25;;
25758;SDS011;13604;52.496;13.456;2022-09-25T08:09:22;15.40;;;9.45;;
25758;SDS011;13604;52.496;13.456;2022-09-25T08:11:48;12.38;;;9.35;;
25758;SDS011;13604;52.496;13.456;2022-09-25T08:14:13;10.88;;;9.02;;
25758;SDS011;13604;52.496;13.456;2022-09-25T08:16:38;12.20;;;10.05;;
25758;SDS011;13604;52.496;13.456;2022-09-25T08:19:04;12.35;;;9.00;;
25758;SDS011;13604;52.496;13.456;2022-09-25T08:21:30;14.13;;;8.82;;
25758;SDS011;13604;52.496;13.456;2022-09-25T08:23:55;12.45;;;8.32;;
25758;SDS011;13604;52.496;13.456;2022-09-25T08:26:21;14.73;;;9.93;;
25758;SDS011;13604;52.496;13.456;2022-09-25T08:28:47;15.50;;;9.80;;
25758;SDS011;13604;52.496;13.456;2022-09-25T08:31:12;10.13;;;8.27;;
25758;SDS011;13604;52.496;13.456;2022-09-25T08:33:38;12.07;;;8.45;;
25758;SDS011;13604;52.496;13.456;2022-09-25T08:36:07;10.82;;;8.02;;
25758;SDS011;13604;52.496;13.456;2022-09-25T08:38:32;11.50;;;8.00;;
25758;SDS011;13604;52.496;13.456;2022-09-25T08:41:44;14.18;;;9.48;;
25758;SDS011;13604;52.496;13.456;2022-09-25T08:43:55;12.65;;;9.57;;
25758;SDS011;13604;52.496;13.456;2022-09-25T08:46:29;13.70;;;8.63;;
25758;SDS011;13604;52.496;13.456;2022-09-25T08:49:24;15.38;;;10.07;;
25758;SDS011;13604;52.496;13.456;2022-09-25T08:52:08;12.70;;;8.60;;
25758;SDS011;13604;52.496;13.456;2022-09-25T08:54:39;14.70;;;9.82;;
25758;SDS011;13604;52.496;13.456;2022-09-25T08:57:24;11.52;;;8.57;;
25758;SDS011;13604;52.496;13.456;2022-09-25T09:00:00;13.95;;;8.50;;
25758;SDS011;13604;52.496;13.456;2022-09-25T09:02:37;11.93;;;8.82;;
25758;SDS011;13604;52.496;13.456;2022-09-25T09:05:06;13.57;;;8.80;;
25758;SDS011;13604;52.496;13.456;2022-09-25T09:07:48;14.15;;;9.00;;
25758;SDS011;13604;52.496;13.456;2022-09-25T09:12:59;17.05;;;9.43;;
25758;SDS011;13604;52.496;13.456;2022-09-25T09:15:48;14.23;;;9.80;;
25758;SDS011;13604;52.496;13.456;2022-09-25T09:18:22;18.55;;;9.48;;
25758;SDS011;13604;52.496;13.456;2022-09-25T09:20:53;16.60;;;9.05;;
25758;SDS011;13604;52.496;13.456;2022-09-25T09:23:20;11.80;;;8.23;;
25758;SDS011;13604;52.496;13.456;2022-09-25T09:25:59;12.50;;;7.32;;
25758;SDS011;13604;52.496;13.456;2022-09-25T09:34:17;12.57;;;8.73;;
25758;SDS011;13604;52.496;13.456;2022-09-25T09:36:53;11.13;;;7.63;;
25758;SDS011;13604;52.496;13.456;2022-09-25T09:39:45;14.38;;;8.35;;
25758;SDS011;13604;52.496;13.456;2022-09-25T09:42:25;10.70;;;8.00;;
25758;SDS011;13604;52.496;13.456;2022-09-25T09:47:50;11.35;;;8.77;;
25758;SDS011;13604;52.496;13.456;2022-09-25T09:50:41;14.18;;;9.15;;
25758;SDS011;13604;52.496;13.456;2022-09-25T09:53:16;8.75;;;7.13;;
25758;SDS011;13604;52.496;13.456;2022-09-25T09:55:52;10.45;;;7.85;;
25758;SDS011;13604;52.496;13.456;2022-09-25T09:58:46;16.45;;;8.38;;
25758;SDS011;13604;52.496;13.456;2022-09-25T10:01:16;10.63;;;7.13;;
25758;SDS011;13604;52.496;13.456;2022-09-25T10:03:44;8.98;;;7.53;;
25758;SDS011;13604;52.496;13.456;2022-09-25T10:06:13;9.77;;;7.05;;
25758;SDS011;13604;52.496;13.456;2022-09-25T10:08:39;11.02;;;9.38;;
25758;SDS011;13604;52.496;13.456;2022-09-25T10:11:11;11.40;;;8.68;;
25758;SDS011;13604;52.496;13.456;2022-09-25T10:13:39;11.10;;;8.38;;
25758;SDS011;13604;52.496;13.456;2022-09-25T10:16:09;12.13;;;8.05;;
25758;SDS011;13604;52.496;13.456;2022-09-25T10:18:39;13.00;;;7.57;;
25758;SDS011;13604;52.496;13.456;2022-09-25T10:24:04;11.68;;;8.20;;
25758;SDS011;13604;52.496;13.456;2022-09-25T10:26:32;11.30;;;7.70;;
25758;SDS011;13604;52.496;13.456;2022-09-25T10:29:00;11.20;;;8.40;;
25758;SDS011;13604;52.496;13.456;2022-09-25T10:31:28;16.15;;;10.15;;
25758;SDS011;13604;52.496;13.456;2022-09-25T10:34:00;10.88;;;8.65;;
25758;SDS011;13604;52.496;13.456;2022-09-25T10:36:29;11.40;;;8.68;;
25758;SDS011;13604;52.496;13.456;2022-09-25T10:39:28;10.75;;;8.88;;
25758;SDS011;13604;52.496;13.456;2022-09-25T10:41:55;9.10;;;7.65;;
25758;SDS011;13604;52.496;13.456;2022-09-25T10:44:32;12.02;;;8.68;;
25758;SDS011;13604;52.496;13.456;2022-09-25T10:50:12;10.88;;;8.27;;
25758;SDS011;13604;52.496;13.456;2022-09-25T10:55:35;10.77;;;7.03;;
25758;SDS011;13604;52.496;13.456;2022-09-25T10:58:05;9.65;;;7.35;;
25758;SDS011;13604;52.496;13.456;2022-09-25T11:03:17;8.88;;;6.93;;
25758;SDS011;13604;52.496;13.456;2022-09-25T11:05:48;10.05;;;6.50;;
25758;SDS011;13604;52.496;13.456;2022-09-25T11:08:17;9.73;;;6.60;;
25758;SDS011;13604;52.496;13.456;2022-09-25T11:10:53;8.35;;;6.90;;
25758;SDS011;13604;52.496;13.456;2022-09-25T11:13:25;9.77;;;7.47;;
25758;SDS011;13604;52.496;13.456;2022-09-25T11:16:01;12.73;;;7.13;;
25758;SDS011;13604;52.496;13.456;2022-09-25T11:18:41;10.05;;;6.95;;
25758;SDS011;13604;52.496;13.456;2022-09-25T11:23:58;9.95;;;7.72;;
25758;SDS011;13604;52.496;13.456;2022-09-25T11:26:31;7.07;;;6.25;;
25758;SDS011;13604;52.496;13.456;2022-09-25T11:29:18;13.57;;;7.72;;
25758;SDS011;13604;52.496;13.456;2022-09-25T11:31:50;9.02;;;7.70;;
25758;SDS011;13604;52.496;13.456;2022-09-25T11:34:24;8.65;;;7.20;;
25758;SDS011;13604;52.496;13.456;2022-09-25T11:37:09;11.80;;;7.70;;
25758;SDS011;13604;52.496;13.456;2022-09-25T11:39:48;12.52;;;8.57;;
25758;SDS011;13604;52.496;13.456;2022-09-25T11:42:47;10.43;;;8.27;;
25758;SDS011;13604;52.496;13.456;2022-09-25T11:45:19;11.45;;;8.35;;
25758;SDS011;13604;52.496;13.456;2022-09-25T11:47:56;11.98;;;7.88;;
25758;SDS011;13604;52.496;13.456;2022-09-25T11:53:23;10.20;;;8.50;;
25758;SDS011;13604;52.496;13.456;2022-09-25T11:58:59;10.82;;;7.95;;
25758;SDS011;13604;52.496;13.456;2022-09-25T12:01:35;10.15;;;8.52;;
25758;SDS011;13604;52.496;13.456;2022-09-25T12:06:47;10.95;;;8.27;;
25758;SDS011;13604;52.496;13.456;2022-09-25T12:12:19;10.25;;;7.75;;
25758;SDS011;13604;52.496;13.456;2022-09-25T12:17:38;9.98;;;7.28;;
25758;SDS011;13604;52.496;13.456;2022-09-25T12:23:23;9.43;;;7.25;;
25758;SDS011;13604;52.496;13.456;2022-09-25T12:26:00;9.25;;;6.25;;
25758;SDS011;13604;52.496;13.456;2022-09-25T12:31:40;7.82;;;6.35;;
25758;SDS011;13604;52.496;13.456;2022-09-25T12:34:24;7.05;;;6.32;;
25758;SDS011;13604;52.496;13.456;2022-09-25T12:37:09;9.35;;;7.47;;
25758;SDS011;13604;52.496;13.456;2022-09-25T12:40:00;7.65;;;6.25;;
25758;SDS011;13604;52.496;13.456;2022-09-25T12:42:42;7.38;;;5.47;;
25758;SDS011;13604;52.496;13.456;2022-09-25T12:45:19;7.55;;;6.28;;
25758;SDS011;13604;52.496;13.456;2022-09-25T12:54:03;6.57;;;5.85;;
25758;SDS011;13604;52.496;13.456;2022-09-25T12:57:19;5.90;;;5.32;;
25758;SDS011;13604;52.496;13.456;2022-09-25T12:59:47;7.38;;;5.25;;
25758;SDS011;13604;52.496;13.456;2022-09-25T13:02:32;6.22;;;5.43;;
25758;SDS011;13604;52.496;13.456;2022-09-25T13:05:04;6.40;;;5.50;;
25758;SDS011;13604;52.496;13.456;2022-09-25T13:07:41;6.78;;;5.57;;
25758;SDS011;13604;52.496;13.456;2022-09-25T13:10:28;8.23;;;5.78;;
25758;SDS011;13604;52.496;13.456;2022-09-25T13:12:58;6.80;;;5.28;;
25758;SDS011;13604;52.496;13.456;2022-09-25T13:15:27;7.65;;;5.63;;
25758;SDS011;13604;52.496;13.456;2022-09-25T13:17:56;6.53;;;5.35;;
25758;SDS011;13604;52.496;13.456;2022-09-25T13:22:51;6.25;;;4.75;;
25758;SDS011;13604;52.496;13.456;2022-09-25T13:25:21;7.68;;;5.18;;
25758;SDS011;13604;52.496;13.456;2022-09-25T13:27:48;8.73;;;5.93;;
25758;SDS011;13604;52.496;13.456;2022-09-25T13:30:21;7.40;;;4.93;;
25758;SDS011;13604;52.496;13.456;2022-09-25T13:32:50;5.68;;;4.95;;
25758;SDS011;13604;52.496;13.456;2022-09-25T13:35:18;10.13;;;5.25;;
25758;SDS011;13604;52.496;13.456;2022-09-25T13:37:44;5.53;;;4.85;;
25758;SDS011;13604;52.496;13.456;2022-09-25T13:40:18;6.72;;;4.95;;
25758;SDS011;13604;52.496;13.456;2022-09-25T13:43:16;9.57;;;4.80;;
25758;SDS011;13604;52.496;13.456;2022-09-25T13:45:44;14.65;;;4.90;;
25758;SDS011;13604;52.496;13.456;2022-09-25T13:51:26;7.50;;;5.00;;
25758;SDS011;13604;52.496;13.456;2022-09-25T13:53:54;6.38;;;4.80;;
25758;SDS011;13604;52.496;13.456;2022-09-25T13:56:48;6.68;;;4.43;;
25758;SDS011;13604;52.496;13.456;2022-09-25T14:01:41;6.53;;;4.88;;
25758;SDS011;13604;52.496;13.456;2022-09-25T14:04:31;6.57;;;5.18;;
25758;SDS011;13604;52.496;13.456;2022-09-25T14:07:04;8.82;;;5.53;;
25758;SDS011;13604;52.496;13.456;2022-09-25T14:09:36;9.43;;;5.85;;
25758;SDS011;13604;52.496;13.456;2022-09-25T14:12:09;18.98;;;5.70;;
25758;SDS011;13604;52.496;13.456;2022-09-25T14:14:47;7.30;;;5.53;;
25758;SDS011;13604;52.496;13.456;2022-09-25T14:17:19;7.07;;;5.93;;
25758;SDS011;13604;52.496;13.456;2022-09-25T14:19:48;8.40;;;5.35;;
25758;SDS011;13604;52.496;13.456;2022-09-25T14:22:20;10.05;;;5.30;;
25758;SDS011;13604;52.496;13.456;2022-09-25T14:24:56;7.00;;;5.05;;
25758;SDS011;13604;52.496;13.456;2022-09-25T14:27:23;14.82;;;5.55;;
25758;SDS011;13604;52.496;13.456;2022-09-25T14:29:50;8.98;;;6.32;;
25758;SDS011;13604;52.496;13.456;2022-09-25T14:32:19;5.93;;;4.63;;
25758;SDS011;13604;52.496;13.456;2022-09-25T14:40:22;7.03;;;6.00;;
25758;SDS011;13604;52.496;13.456;2022-09-25T14:43:10;7.05;;;5.88;;
25758;SDS011;13604;52.496;13.456;2022-09-25T14:46:01;8.23;;;5.80;;
25758;SDS011;13604;52.496;13.456;2022-09-25T14:48:32;8.40;;;6.00;;
25758;SDS011;13604;52.496;13.456;2022-09-25T14:51:05;6.80;;;6.07;;
25758;SDS011;13604;52.496;13.456;2022-09-25T14:53:36;8.85;;;6.25;;
25758;SDS011;13604;52.496;13.456;2022-09-25T14:56:13;7.65;;;6.35;;
25758;SDS011;13604;52.496;13.456;2022-09-25T14:58:46;9.07;;;6.70;;
25758;SDS011;13604;52.496;13.456;2022-09-25T15:01:27;7.53;;;6.72;;
25758;SDS011;13604;52.496;13.456;2022-09-25T15:03:55;8.43;;;6.30;;
25758;SDS011;13604;52.496;13.456;2022-09-25T15:06:28;8.30;;;6.90;;
25758;SDS011;13604;52.496;13.456;2022-09-25T15:09:01;10.05;;;7.05;;
25758;SDS011;13604;52.496;13.456;2022-09-25T15:11:42;8.07;;;6.95;;
25758;SDS011;13604;52.496;13.456;2022-09-25T15:14:08;9.77;;;7.13;;
25758;SDS011;13604;52.496;13.456;2022-09-25T15:16:35;8.35;;;7.45;;
25758;SDS011;13604;52.496;13.456;2022-09-25T15:19:21;11.95;;;8.10;;
25758;SDS011;13604;52.496;13.456;2022-09-25T15:21:53;14.18;;;8.98;;
25758;SDS011;13604;52.496;13.456;2022-09-25T15:24:22;11.10;;;6.70;;
25758;SDS011;13604;52.496;13.456;2022-09-25T15:27:03;9.93;;;7.85;;
25758;SDS011;13604;52.496;13.456;2022-09-25T15:29:34;13.95;;;8.27;;
25758;SDS011;13604;52.496;13.456;2022-09-25T15:32:01;10.90;;;8.13;;
25758;SDS011;13604;52.496;13.456;2022-09-25T15:34:29;10.40;;;7.55;;
25758;SDS011;13604;52.496;13.456;2022-09-25T15:37:16;8.82;;;7.38;;
25758;SDS011;13604;52.496;13.456;2022-09-25T15:39:46;13.82;;;7.72;;
25758;SDS011;13604;52.496;13.456;2022-09-25T15:42:14;10.48;;;7.70;;
25758;SDS011;13604;52.496;13.456;2022-09-25T15:44:40;9.48;;;7.53;;
25758;SDS011;13604;52.496;13.456;2022-09-25T15:47:06;10.20;;;7.85;;
25758;SDS011;13604;52.496;13.456;2022-09-25T15:50:03;10.45;;;7.72;;
25758;SDS011;13604;52.496;13.456;2022-09-25T15:52:34;12.48;;;7.95;;
25758;SDS011;13604;52.496;13.456;2022-09-25T15:55:01;10.95;;;8.38;;
25758;SDS011;13604;52.496;13.456;2022-09-25T15:57:29;11.90;;;7.75;;
25758;SDS011;13604;52.496;13.456;2022-09-25T15:59:55;9.80;;;7.13;;
25758;SDS011;13604;52.496;13.456;2022-09-25T16:02:47;11.63;;;8.10;;
25758;SDS011;13604;52.496;13.456;2022-09-25T16:05:38;9.10;;;6.95;;
25758;SDS011;13604;52.496;13.456;2022-09-25T16:08:25;9.95;;;7.68;;
25758;SDS011;13604;52.496;13.456;2022-09-25T16:11:13;10.65;;;7.47;;
25758;SDS011;13604;52.496;13.456;2022-09-25T16:13:41;10.95;;;7.45;;